sensor_id;sensor_type;location;lat;lon;timestamp;temperature;humidity
48589;DHT22;34369;51.174;6.738;2024-03-17T00:02:56;4.80;65.40
48589;DHT22;34369;51.174;6.738;2024-03-17T00:06:36;4.80;65.20
48589;DHT22;34369;51.174;6.738;2024-03-17T00:09:49;4.80;65.80
48589;DHT22;34369;51.174;6.738;2024-03-17T00:13:14;4.80;65.50
48589;DHT22;34369;51.174;6.738;2024-03-17T00:16:22;4.80;65.60
48589;DHT22;34369;51.174;6.738;2024-03-17T00:22:35;4.80;66.00
48589;DHT22;34369;51.174;6.738;2024-03-17T00:25:38;4.70;65.90
48589;DHT22;34369;51.174;6.738;2024-03-17T00:31:53;4.70;66.10
48589;DHT22;34369;51.174;6.738;2024-03-17T00:39:13;4.70;65.80
48589;DHT22;34369;51.174;6.738;2024-03-17T00:42:17;4.70;66.10
48589;DHT22;34369;51.174;6.738;2024-03-17T00:45:53;4.70;65.60
48589;DHT22;34369;51.174;6.738;2024-03-17T00:56:11;4.70;66.10
48589;DHT22;34369;51.174;6.738;2024-03-17T01:06:05;4.80;65.70
48589;DHT22;34369;51.174;6.738;2024-03-17T01:19:41;4.70;66.60
48589;DHT22;34369;51.174;6.738;2024-03-17T01:22:54;4.70;66.20
48589;DHT22;34369;51.174;6.738;2024-03-17T01:26:15;4.70;66.70
48589;DHT22;34369;51.174;6.738;2024-03-17T01:29:35;4.70;66.60
48589;DHT22;34369;51.174;6.738;2024-03-17T01:33:03;4.70;66.90
48589;DHT22;34369;51.174;6.738;2024-03-17T01:46:13;4.70;67.20
48589;DHT22;34369;51.174;6.738;2024-03-17T01:53:11;4.70;67.30
48589;DHT22;34369;51.174;6.738;2024-03-17T01:59:48;4.70;66.90
48589;DHT22;34369;51.174;6.738;2024-03-17T02:06:59;4.70;66.40
48589;DHT22;34369;51.174;6.738;2024-03-17T02:09:56;4.70;66.60
48589;DHT22;34369;51.174;6.738;2024-03-17T02:13:16;4.60;66.30
48589;DHT22;34369;51.174;6.738;2024-03-17T02:16:49;4.50;66.60
48589;DHT22;34369;51.174;6.738;2024-03-17T02:30:34;4.40;66.50
48589;DHT22;34369;51.174;6.738;2024-03-17T02:34:02;4.30;66.50
48589;DHT22;34369;51.174;6.738;2024-03-17T02:37:33;4.30;66.40
48589;DHT22;34369;51.174;6.738;2024-03-17T02:40:52;4.20;67.10
48589;DHT22;34369;51.174;6.738;2024-03-17T02:47:16;4.10;66.60
48589;DHT22;34369;51.174;6.738;2024-03-17T03:21:25;3.90;68.30
48589;DHT22;34369;51.174;6.738;2024-03-17T03:23:59;3.90;67.80
48589;DHT22;34369;51.174;6.738;2024-03-17T03:26:33;3.90;67.90
48589;DHT22;34369;51.174;6.738;2024-03-17T03:29:08;3.90;68.20
48589;DHT22;34369;51.174;6.738;2024-03-17T03:31:42;3.90;68.50
48589;DHT22;34369;51.174;6.738;2024-03-17T03:34:17;3.90;68.70
48589;DHT22;34369;51.174;6.738;2024-03-17T03:36:52;4.00;68.80
48589;DHT22;34369;51.174;6.738;2024-03-17T03:39:27;4.00;68.60
48589;DHT22;34369;51.174;6.738;2024-03-17T03:42:03;4.00;68.60
48589;DHT22;34369;51.174;6.738;2024-03-17T03:44:36;4.00;68.50
48589;DHT22;34369;51.174;6.738;2024-03-17T03:47:10;4.10;68.50
48589;DHT22;34369;51.174;6.738;2024-03-17T03:49:44;4.10;68.30
48589;DHT22;34369;51.174;6.738;2024-03-17T03:52:21;4.10;68.20
48589;DHT22;34369;51.174;6.738;2024-03-17T03:54:56;4.00;68.00
48589;DHT22;34369;51.174;6.738;2024-03-17T03:57:30;4.10;67.90
48589;DHT22;34369;51.174;6.738;2024-03-17T04:00:05;4.00;67.60
48589;DHT22;34369;51.174;6.738;2024-03-17T04:02:44;4.00;67.70
48589;DHT22;34369;51.174;6.738;2024-03-17T04:05:18;4.00;67.60
48589;DHT22;34369;51.174;6.738;2024-03-17T04:07:53;4.00;67.80
48589;DHT22;34369;51.174;6.738;2024-03-17T04:10:27;3.90;68.10
48589;DHT22;34369;51.174;6.738;2024-03-17T04:13:03;3.90;68.40
48589;DHT22;34369;51.174;6.738;2024-03-17T04:15:37;3.90;68.40
48589;DHT22;34369;51.174;6.738;2024-03-17T04:18:11;3.90;68.20
48589;DHT22;34369;51.174;6.738;2024-03-17T04:20:47;4.00;68.10
48589;DHT22;34369;51.174;6.738;2024-03-17T04:23:23;4.00;68.40
48589;DHT22;34369;51.174;6.738;2024-03-17T04:26:00;4.00;68.60
48589;DHT22;34369;51.174;6.738;2024-03-17T04:28:35;4.00;68.50
48589;DHT22;34369;51.174;6.738;2024-03-17T04:31:09;4.00;69.10
48589;DHT22;34369;51.174;6.738;2024-03-17T04:33:42;4.00;68.40
48589;DHT22;34369;51.174;6.738;2024-03-17T04:36:17;4.10;68.30
48589;DHT22;34369;51.174;6.738;2024-03-17T04:38:53;4.10;68.50
48589;DHT22;34369;51.174;6.738;2024-03-17T04:41:27;4.10;68.50
48589;DHT22;34369;51.174;6.738;2024-03-17T04:44:01;4.10;68.60
48589;DHT22;34369;51.174;6.738;2024-03-17T04:46:38;4.20;68.80
48589;DHT22;34369;51.174;6.738;2024-03-17T04:49:11;4.20;69.10
48589;DHT22;34369;51.174;6.738;2024-03-17T04:51:45;4.20;69.10
48589;DHT22;34369;51.174;6.738;2024-03-17T04:54:24;4.30;69.50
48589;DHT22;34369;51.174;6.738;2024-03-17T04:56:58;4.30;69.90
48589;DHT22;34369;51.174;6.738;2024-03-17T04:59:35;4.40;69.80
48589;DHT22;34369;51.174;6.738;2024-03-17T05:02:09;4.40;70.00
48589;DHT22;34369;51.174;6.738;2024-03-17T05:04:46;4.50;70.10
48589;DHT22;34369;51.174;6.738;2024-03-17T05:07:21;4.50;70.10
48589;DHT22;34369;51.174;6.738;2024-03-17T05:09:57;4.50;70.10
48589;DHT22;34369;51.174;6.738;2024-03-17T05:12:31;4.60;70.00
48589;DHT22;34369;51.174;6.738;2024-03-17T05:15:08;4.70;70.00
48589;DHT22;34369;51.174;6.738;2024-03-17T05:17:42;4.70;69.90
48589;DHT22;34369;51.174;6.738;2024-03-17T05:20:21;4.70;69.80
48589;DHT22;34369;51.174;6.738;2024-03-17T05:22:55;4.70;69.70
48589;DHT22;34369;51.174;6.738;2024-03-17T05:25:31;4.80;69.40
48589;DHT22;34369;51.174;6.738;2024-03-17T05:28:07;4.90;69.30
48589;DHT22;34369;51.174;6.738;2024-03-17T05:30:42;4.90;69.30
48589;DHT22;34369;51.174;6.738;2024-03-17T05:33:16;4.90;69.20
48589;DHT22;34369;51.174;6.738;2024-03-17T05:35:50;4.90;69.10
48589;DHT22;34369;51.174;6.738;2024-03-17T05:38:26;4.90;69.00
48589;DHT22;34369;51.174;6.738;2024-03-17T05:41:03;4.90;69.00
48589;DHT22;34369;51.174;6.738;2024-03-17T05:43:38;5.00;68.90
48589;DHT22;34369;51.174;6.738;2024-03-17T05:46:13;4.90;68.90
48589;DHT22;34369;51.174;6.738;2024-03-17T05:48:47;5.00;68.90
48589;DHT22;34369;51.174;6.738;2024-03-17T05:51:22;5.00;68.80
48589;DHT22;34369;51.174;6.738;2024-03-17T05:53:58;5.00;68.70
48589;DHT22;34369;51.174;6.738;2024-03-17T05:56:33;5.00;68.70
48589;DHT22;34369;51.174;6.738;2024-03-17T05:59:07;5.00;68.60
48589;DHT22;34369;51.174;6.738;2024-03-17T06:01:42;5.00;68.50
48589;DHT22;34369;51.174;6.738;2024-03-17T06:04:18;5.00;68.50
48589;DHT22;34369;51.174;6.738;2024-03-17T06:06:52;5.00;68.50
48589;DHT22;34369;51.174;6.738;2024-03-17T06:09:26;5.00;68.50
48589;DHT22;34369;51.174;6.738;2024-03-17T06:12:01;5.00;68.50
48589;DHT22;34369;51.174;6.738;2024-03-17T06:14:35;5.00;68.40
48589;DHT22;34369;51.174;6.738;2024-03-17T06:17:09;4.90;68.50
48589;DHT22;34369;51.174;6.738;2024-03-17T06:19:43;5.00;68.50
48589;DHT22;34369;51.174;6.738;2024-03-17T06:22:18;5.00;68.40
48589;DHT22;34369;51.174;6.738;2024-03-17T06:24:53;5.00;68.60
48589;DHT22;34369;51.174;6.738;2024-03-17T06:27:29;5.00;68.60
48589;DHT22;34369;51.174;6.738;2024-03-17T06:30:07;5.00;68.60
48589;DHT22;34369;51.174;6.738;2024-03-17T06:32:46;5.00;68.60
48589;DHT22;34369;51.174;6.738;2024-03-17T06:35:22;5.00;68.50
48589;DHT22;34369;51.174;6.738;2024-03-17T06:37:59;5.00;68.50
48589;DHT22;34369;51.174;6.738;2024-03-17T06:40:35;5.00;68.60
48589;DHT22;34369;51.174;6.738;2024-03-17T06:43:11;5.00;68.60
48589;DHT22;34369;51.174;6.738;2024-03-17T06:45:54;5.00;68.70
48589;DHT22;34369;51.174;6.738;2024-03-17T06:48:29;5.10;68.80
48589;DHT22;34369;51.174;6.738;2024-03-17T06:51:04;5.10;68.80
48589;DHT22;34369;51.174;6.738;2024-03-17T06:53:40;5.20;68.70
48589;DHT22;34369;51.174;6.738;2024-03-17T06:56:14;5.30;68.70
48589;DHT22;34369;51.174;6.738;2024-03-17T06:58:49;5.30;68.70
48589;DHT22;34369;51.174;6.738;2024-03-17T07:01:24;5.30;68.70
48589;DHT22;34369;51.174;6.738;2024-03-17T07:04:00;5.30;68.70
48589;DHT22;34369;51.174;6.738;2024-03-17T07:06:33;5.40;68.80
48589;DHT22;34369;51.174;6.738;2024-03-17T07:09:08;5.50;69.10
48589;DHT22;34369;51.174;6.738;2024-03-17T07:11:45;5.50;69.50
48589;DHT22;34369;51.174;6.738;2024-03-17T07:14:22;5.60;69.60
48589;DHT22;34369;51.174;6.738;2024-03-17T07:16:59;5.70;69.00
48589;DHT22;34369;51.174;6.738;2024-03-17T07:19:33;5.80;68.50
48589;DHT22;34369;51.174;6.738;2024-03-17T07:22:07;5.90;68.20
48589;DHT22;34369;51.174;6.738;2024-03-17T07:24:42;6.00;68.40
48589;DHT22;34369;51.174;6.738;2024-03-17T07:27:17;6.10;68.80
48589;DHT22;34369;51.174;6.738;2024-03-17T07:29:52;6.30;68.80
48589;DHT22;34369;51.174;6.738;2024-03-17T07:32:27;6.40;68.20
48589;DHT22;34369;51.174;6.738;2024-03-17T07:35:01;6.50;68.40
48589;DHT22;34369;51.174;6.738;2024-03-17T07:37:36;6.80;68.90
48589;DHT22;34369;51.174;6.738;2024-03-17T07:40:10;7.10;69.40
48589;DHT22;34369;51.174;6.738;2024-03-17T07:42:45;7.50;69.40
48589;DHT22;34369;51.174;6.738;2024-03-17T07:45:21;7.80;69.20
48589;DHT22;34369;51.174;6.738;2024-03-17T07:47:55;8.30;69.10
48589;DHT22;34369;51.174;6.738;2024-03-17T07:50:29;8.70;68.60
48589;DHT22;34369;51.174;6.738;2024-03-17T07:53:06;9.20;67.30
48589;DHT22;34369;51.174;6.738;2024-03-17T07:55:39;9.60;66.00
48589;DHT22;34369;51.174;6.738;2024-03-17T07:58:13;10.00;64.30
48589;DHT22;34369;51.174;6.738;2024-03-17T08:00:47;10.30;63.60
48589;DHT22;34369;51.174;6.738;2024-03-17T08:03:21;10.60;62.60
48589;DHT22;34369;51.174;6.738;2024-03-17T08:05:56;10.80;62.30
48589;DHT22;34369;51.174;6.738;2024-03-17T08:08:30;11.00;60.90
48589;DHT22;34369;51.174;6.738;2024-03-17T08:11:06;11.10;59.70
48589;DHT22;34369;51.174;6.738;2024-03-17T08:13:40;11.20;58.90
48589;DHT22;34369;51.174;6.738;2024-03-17T08:16:16;11.20;57.90
48589;DHT22;34369;51.174;6.738;2024-03-17T08:18:51;11.20;57.20
48589;DHT22;34369;51.174;6.738;2024-03-17T08:21:26;11.10;56.80
48589;DHT22;34369;51.174;6.738;2024-03-17T08:24:03;11.00;57.30
48589;DHT22;34369;51.174;6.738;2024-03-17T08:26:37;10.80;57.00
48589;DHT22;34369;51.174;6.738;2024-03-17T08:29:11;10.80;57.80
48589;DHT22;34369;51.174;6.738;2024-03-17T08:31:47;10.70;58.50
48589;DHT22;34369;51.174;6.738;2024-03-17T08:34:21;10.80;58.70
48589;DHT22;34369;51.174;6.738;2024-03-17T08:36:55;10.80;58.60
48589;DHT22;34369;51.174;6.738;2024-03-17T08:39:30;10.90;58.30
48589;DHT22;34369;51.174;6.738;2024-03-17T08:42:03;11.00;58.00
48589;DHT22;34369;51.174;6.738;2024-03-17T08:44:36;11.10;58.00
48589;DHT22;34369;51.174;6.738;2024-03-17T08:47:11;11.20;57.40
48589;DHT22;34369;51.174;6.738;2024-03-17T08:49:45;11.20;56.80
48589;DHT22;34369;51.174;6.738;2024-03-17T08:52:20;11.20;56.50
48589;DHT22;34369;51.174;6.738;2024-03-17T08:54:54;11.20;56.20
48589;DHT22;34369;51.174;6.738;2024-03-17T08:57:27;11.20;56.50
48589;DHT22;34369;51.174;6.738;2024-03-17T09:00:00;11.10;56.40
48589;DHT22;34369;51.174;6.738;2024-03-17T09:02:37;11.10;57.10
48589;DHT22;34369;51.174;6.738;2024-03-17T09:05:12;11.10;56.70
48589;DHT22;34369;51.174;6.738;2024-03-17T09:07:45;11.10;56.90
48589;DHT22;34369;51.174;6.738;2024-03-17T09:10:18;11.10;56.20
48589;DHT22;34369;51.174;6.738;2024-03-17T09:12:52;11.10;56.20
48589;DHT22;34369;51.174;6.738;2024-03-17T09:15:26;11.10;56.70
48589;DHT22;34369;51.174;6.738;2024-03-17T09:18:02;11.00;56.90
48589;DHT22;34369;51.174;6.738;2024-03-17T09:20:37;11.10;56.60
48589;DHT22;34369;51.174;6.738;2024-03-17T09:23:10;11.00;56.40
48589;DHT22;34369;51.174;6.738;2024-03-17T09:25:55;11.10;56.50
48589;DHT22;34369;51.174;6.738;2024-03-17T09:28:36;11.10;56.40
48589;DHT22;34369;51.174;6.738;2024-03-17T09:31:11;11.10;56.60
48589;DHT22;34369;51.174;6.738;2024-03-17T09:33:47;11.10;56.00
48589;DHT22;34369;51.174;6.738;2024-03-17T09:36:22;11.10;56.40
48589;DHT22;34369;51.174;6.738;2024-03-17T09:38:56;11.10;56.70
48589;DHT22;34369;51.174;6.738;2024-03-17T09:41:35;11.20;56.70
48589;DHT22;34369;51.174;6.738;2024-03-17T09:44:12;11.20;56.40
48589;DHT22;34369;51.174;6.738;2024-03-17T09:46:46;11.30;56.00
48589;DHT22;34369;51.174;6.738;2024-03-17T09:49:21;11.40;56.00
48589;DHT22;34369;51.174;6.738;2024-03-17T09:51:57;11.40;55.60
48589;DHT22;34369;51.174;6.738;2024-03-17T09:54:32;11.40;55.70
48589;DHT22;34369;51.174;6.738;2024-03-17T09:57:13;11.40;55.70
48589;DHT22;34369;51.174;6.738;2024-03-17T09:59:51;11.40;55.50
48589;DHT22;34369;51.174;6.738;2024-03-17T10:02:27;11.40;55.50
48589;DHT22;34369;51.174;6.738;2024-03-17T10:05:02;11.40;55.50
48589;DHT22;34369;51.174;6.738;2024-03-17T10:07:38;11.40;55.30
48589;DHT22;34369;51.174;6.738;2024-03-17T10:10:14;11.40;55.40
48589;DHT22;34369;51.174;6.738;2024-03-17T10:12:51;11.40;55.60
48589;DHT22;34369;51.174;6.738;2024-03-17T10:15:24;11.40;55.70
48589;DHT22;34369;51.174;6.738;2024-03-17T10:17:59;11.40;55.50
48589;DHT22;34369;51.174;6.738;2024-03-17T10:20:34;11.40;55.50
48589;DHT22;34369;51.174;6.738;2024-03-17T10:23:08;11.40;55.00
48589;DHT22;34369;51.174;6.738;2024-03-17T10:25:43;11.40;55.30
48589;DHT22;34369;51.174;6.738;2024-03-17T10:28:17;11.40;55.70
48589;DHT22;34369;51.174;6.738;2024-03-17T10:30:58;11.40;55.40
48589;DHT22;34369;51.174;6.738;2024-03-17T10:33:33;11.50;55.30
48589;DHT22;34369;51.174;6.738;2024-03-17T10:36:17;11.50;56.00
48589;DHT22;34369;51.174;6.738;2024-03-17T10:38:54;11.50;55.70
48589;DHT22;34369;51.174;6.738;2024-03-17T10:41:28;11.60;55.80
48589;DHT22;34369;51.174;6.738;2024-03-17T10:44:05;11.70;55.80
48589;DHT22;34369;51.174;6.738;2024-03-17T10:46:44;11.80;56.00
48589;DHT22;34369;51.174;6.738;2024-03-17T10:49:27;11.90;55.90
48589;DHT22;34369;51.174;6.738;2024-03-17T10:52:08;12.00;55.60
48589;DHT22;34369;51.174;6.738;2024-03-17T10:54:53;12.00;55.10
48589;DHT22;34369;51.174;6.738;2024-03-17T10:57:31;12.10;55.10
48589;DHT22;34369;51.174;6.738;2024-03-17T11:00:10;12.20;55.60
48589;DHT22;34369;51.174;6.738;2024-03-17T11:02:49;12.20;55.50
48589;DHT22;34369;51.174;6.738;2024-03-17T11:05:27;12.30;55.30
48589;DHT22;34369;51.174;6.738;2024-03-17T11:08:15;12.40;55.00
48589;DHT22;34369;51.174;6.738;2024-03-17T11:10:52;12.50;54.30
48589;DHT22;34369;51.174;6.738;2024-03-17T11:13:29;12.50;54.60
48589;DHT22;34369;51.174;6.738;2024-03-17T11:16:03;12.70;54.00
48589;DHT22;34369;51.174;6.738;2024-03-17T11:18:41;12.70;54.40
48589;DHT22;34369;51.174;6.738;2024-03-17T11:21:21;12.80;54.20
48589;DHT22;34369;51.174;6.738;2024-03-17T11:24:02;12.90;53.90
48589;DHT22;34369;51.174;6.738;2024-03-17T11:26:35;13.00;53.70
48589;DHT22;34369;51.174;6.738;2024-03-17T11:29:26;13.10;54.20
48589;DHT22;34369;51.174;6.738;2024-03-17T11:32:01;13.20;53.90
48589;DHT22;34369;51.174;6.738;2024-03-17T11:35:13;13.30;53.90
48589;DHT22;34369;51.174;6.738;2024-03-17T11:37:46;13.50;52.80
48589;DHT22;34369;51.174;6.738;2024-03-17T11:40:28;13.50;52.70
48589;DHT22;34369;51.174;6.738;2024-03-17T11:43:03;13.60;52.20
48589;DHT22;34369;51.174;6.738;2024-03-17T11:45:36;13.60;52.60
48589;DHT22;34369;51.174;6.738;2024-03-17T11:48:13;13.70;53.20
48589;DHT22;34369;51.174;6.738;2024-03-17T11:50:48;13.80;53.30
48589;DHT22;34369;51.174;6.738;2024-03-17T11:53:25;13.90;53.30
48589;DHT22;34369;51.174;6.738;2024-03-17T11:56:00;13.90;53.20
48589;DHT22;34369;51.174;6.738;2024-03-17T11:58:36;14.10;53.20
48589;DHT22;34369;51.174;6.738;2024-03-17T12:01:12;14.20;53.40
48589;DHT22;34369;51.174;6.738;2024-03-17T12:03:46;14.40;54.00
48589;DHT22;34369;51.174;6.738;2024-03-17T12:06:19;14.50;53.00
48589;DHT22;34369;51.174;6.738;2024-03-17T12:08:53;14.70;52.30
48589;DHT22;34369;51.174;6.738;2024-03-17T12:11:27;14.80;52.10
48589;DHT22;34369;51.174;6.738;2024-03-17T12:14:12;14.90;51.80
48589;DHT22;34369;51.174;6.738;2024-03-17T12:17:03;15.00;49.90
48589;DHT22;34369;51.174;6.738;2024-03-17T12:19:38;15.10;50.50
48589;DHT22;34369;51.174;6.738;2024-03-17T12:22:16;15.10;50.50
48589;DHT22;34369;51.174;6.738;2024-03-17T12:24:53;15.10;49.70
48589;DHT22;34369;51.174;6.738;2024-03-17T12:27:28;15.10;49.90
48589;DHT22;34369;51.174;6.738;2024-03-17T12:30:02;15.10;49.80
48589;DHT22;34369;51.174;6.738;2024-03-17T12:32:34;15.10;50.00
48589;DHT22;34369;51.174;6.738;2024-03-17T12:35:15;15.10;49.80
48589;DHT22;34369;51.174;6.738;2024-03-17T12:37:49;15.10;49.50
48589;DHT22;34369;51.174;6.738;2024-03-17T12:40:23;15.20;50.40
48589;DHT22;34369;51.174;6.738;2024-03-17T12:42:59;15.30;49.60
48589;DHT22;34369;51.174;6.738;2024-03-17T12:45:32;15.30;49.40
48589;DHT22;34369;51.174;6.738;2024-03-17T12:48:13;15.30;49.20
48589;DHT22;34369;51.174;6.738;2024-03-17T12:50:46;15.30;48.60
48589;DHT22;34369;51.174;6.738;2024-03-17T12:53:18;15.30;49.30
48589;DHT22;34369;51.174;6.738;2024-03-17T12:55:56;15.30;49.30
48589;DHT22;34369;51.174;6.738;2024-03-17T12:58:48;15.20;49.80
48589;DHT22;34369;51.174;6.738;2024-03-17T13:01:50;15.20;49.60
48589;DHT22;34369;51.174;6.738;2024-03-17T13:04:25;15.30;49.40
48589;DHT22;34369;51.174;6.738;2024-03-17T13:07:10;15.30;48.80
48589;DHT22;34369;51.174;6.738;2024-03-17T13:09:45;15.30;48.60
48589;DHT22;34369;51.174;6.738;2024-03-17T13:12:18;15.30;48.60
48589;DHT22;34369;51.174;6.738;2024-03-17T13:14:53;15.30;48.40
48589;DHT22;34369;51.174;6.738;2024-03-17T13:17:30;15.30;48.00
48589;DHT22;34369;51.174;6.738;2024-03-17T13:20:07;15.20;47.90
48589;DHT22;34369;51.174;6.738;2024-03-17T13:22:44;15.10;47.70
48589;DHT22;34369;51.174;6.738;2024-03-17T13:25:19;15.10;48.30
48589;DHT22;34369;51.174;6.738;2024-03-17T13:27:54;15.00;48.10
48589;DHT22;34369;51.174;6.738;2024-03-17T13:30:30;15.00;48.60
48589;DHT22;34369;51.174;6.738;2024-03-17T13:33:05;14.90;48.00
48589;DHT22;34369;51.174;6.738;2024-03-17T13:35:42;14.90;48.10
48589;DHT22;34369;51.174;6.738;2024-03-17T13:38:16;14.80;47.80
48589;DHT22;34369;51.174;6.738;2024-03-17T13:40:50;14.70;47.90
48589;DHT22;34369;51.174;6.738;2024-03-17T13:43:24;14.70;48.30
48589;DHT22;34369;51.174;6.738;2024-03-17T13:46:01;14.60;48.40
48589;DHT22;34369;51.174;6.738;2024-03-17T13:48:35;14.60;48.40
48589;DHT22;34369;51.174;6.738;2024-03-17T13:51:12;14.60;48.20
48589;DHT22;34369;51.174;6.738;2024-03-17T13:53:46;14.50;48.40
48589;DHT22;34369;51.174;6.738;2024-03-17T13:56:20;14.50;48.40
48589;DHT22;34369;51.174;6.738;2024-03-17T13:58:54;14.50;48.60
48589;DHT22;34369;51.174;6.738;2024-03-17T14:01:29;14.50;48.50
48589;DHT22;34369;51.174;6.738;2024-03-17T14:04:03;14.50;48.70
48589;DHT22;34369;51.174;6.738;2024-03-17T14:06:37;14.50;48.60
48589;DHT22;34369;51.174;6.738;2024-03-17T14:09:11;14.50;48.90
48589;DHT22;34369;51.174;6.738;2024-03-17T14:11:46;14.50;48.80
48589;DHT22;34369;51.174;6.738;2024-03-17T14:14:22;14.60;49.00
48589;DHT22;34369;51.174;6.738;2024-03-17T14:16:57;14.60;48.70
48589;DHT22;34369;51.174;6.738;2024-03-17T14:19:34;14.70;48.60
48589;DHT22;34369;51.174;6.738;2024-03-17T14:22:08;14.70;49.00
48589;DHT22;34369;51.174;6.738;2024-03-17T14:24:42;14.60;48.90
48589;DHT22;34369;51.174;6.738;2024-03-17T14:27:16;14.70;48.90
48589;DHT22;34369;51.174;6.738;2024-03-17T14:29:50;14.70;49.00
48589;DHT22;34369;51.174;6.738;2024-03-17T14:32:26;14.70;49.00
48589;DHT22;34369;51.174;6.738;2024-03-17T14:35:00;14.70;49.00
48589;DHT22;34369;51.174;6.738;2024-03-17T14:37:34;14.70;49.10
48589;DHT22;34369;51.174;6.738;2024-03-17T14:40:09;14.70;49.00
48589;DHT22;34369;51.174;6.738;2024-03-17T14:42:51;14.70;49.00
48589;DHT22;34369;51.174;6.738;2024-03-17T14:45:25;14.70;48.90
48589;DHT22;34369;51.174;6.738;2024-03-17T14:48:01;14.70;49.30
48589;DHT22;34369;51.174;6.738;2024-03-17T14:50:37;14.70;49.50
48589;DHT22;34369;51.174;6.738;2024-03-17T14:53:14;14.80;49.70
48589;DHT22;34369;51.174;6.738;2024-03-17T14:55:48;14.90;50.30
48589;DHT22;34369;51.174;6.738;2024-03-17T14:58:22;15.00;49.60
48589;DHT22;34369;51.174;6.738;2024-03-17T15:00:57;15.00;49.20
48589;DHT22;34369;51.174;6.738;2024-03-17T15:03:32;15.00;49.00
48589;DHT22;34369;51.174;6.738;2024-03-17T15:06:09;15.00;48.80
48589;DHT22;34369;51.174;6.738;2024-03-17T15:08:45;15.10;49.20
48589;DHT22;34369;51.174;6.738;2024-03-17T15:11:18;15.10;48.90
48589;DHT22;34369;51.174;6.738;2024-03-17T15:13:53;15.10;48.90
48589;DHT22;34369;51.174;6.738;2024-03-17T15:16:27;15.10;48.60
48589;DHT22;34369;51.174;6.738;2024-03-17T15:19:07;15.10;48.60
48589;DHT22;34369;51.174;6.738;2024-03-17T15:21:40;15.10;48.50
48589;DHT22;34369;51.174;6.738;2024-03-17T15:24:14;15.10;48.20
48589;DHT22;34369;51.174;6.738;2024-03-17T15:26:47;15.10;48.40
48589;DHT22;34369;51.174;6.738;2024-03-17T15:29:21;15.10;48.50
48589;DHT22;34369;51.174;6.738;2024-03-17T15:31:57;15.10;48.30
48589;DHT22;34369;51.174;6.738;2024-03-17T15:34:32;15.10;48.30
48589;DHT22;34369;51.174;6.738;2024-03-17T15:37:08;15.10;48.00
48589;DHT22;34369;51.174;6.738;2024-03-17T15:39:41;15.00;48.50
48589;DHT22;34369;51.174;6.738;2024-03-17T15:42:14;15.00;48.60
48589;DHT22;34369;51.174;6.738;2024-03-17T15:44:48;15.00;48.70
48589;DHT22;34369;51.174;6.738;2024-03-17T15:47:22;15.00;48.30
48589;DHT22;34369;51.174;6.738;2024-03-17T15:49:58;15.00;48.40
48589;DHT22;34369;51.174;6.738;2024-03-17T15:52:31;15.00;48.50
48589;DHT22;34369;51.174;6.738;2024-03-17T15:55:06;15.00;48.40
48589;DHT22;34369;51.174;6.738;2024-03-17T15:57:39;14.90;48.50
48589;DHT22;34369;51.174;6.738;2024-03-17T16:00:13;14.90;48.80
48589;DHT22;34369;51.174;6.738;2024-03-17T16:02:48;14.90;48.70
48589;DHT22;34369;51.174;6.738;2024-03-17T16:05:26;14.90;48.70
48589;DHT22;34369;51.174;6.738;2024-03-17T16:07:59;14.90;48.70
48589;DHT22;34369;51.174;6.738;2024-03-17T16:10:35;14.90;48.90
48589;DHT22;34369;51.174;6.738;2024-03-17T16:13:09;14.90;48.80
48589;DHT22;34369;51.174;6.738;2024-03-17T16:15:43;14.90;48.90
48589;DHT22;34369;51.174;6.738;2024-03-17T16:18:18;14.90;49.20
48589;DHT22;34369;51.174;6.738;2024-03-17T16:21:05;14.80;49.00
48589;DHT22;34369;51.174;6.738;2024-03-17T16:23:43;14.80;48.70
48589;DHT22;34369;51.174;6.738;2024-03-17T16:26:21;14.80;48.90
48589;DHT22;34369;51.174;6.738;2024-03-17T16:28:55;14.70;48.70
48589;DHT22;34369;51.174;6.738;2024-03-17T16:31:29;14.70;49.00
48589;DHT22;34369;51.174;6.738;2024-03-17T16:34:04;14.70;49.10
48589;DHT22;34369;51.174;6.738;2024-03-17T16:36:39;14.70;49.10
48589;DHT22;34369;51.174;6.738;2024-03-17T16:39:14;14.70;49.00
48589;DHT22;34369;51.174;6.738;2024-03-17T16:41:48;14.60;49.10
48589;DHT22;34369;51.174;6.738;2024-03-17T16:44:30;14.50;49.20
48589;DHT22;34369;51.174;6.738;2024-03-17T16:47:27;14.50;49.30
48589;DHT22;34369;51.174;6.738;2024-03-17T16:50:03;14.50;49.70
48589;DHT22;34369;51.174;6.738;2024-03-17T16:52:41;14.40;49.70
48589;DHT22;34369;51.174;6.738;2024-03-17T16:55:16;14.40;49.80
48589;DHT22;34369;51.174;6.738;2024-03-17T16:57:51;14.30;49.90
48589;DHT22;34369;51.174;6.738;2024-03-17T17:00:25;14.30;50.00
48589;DHT22;34369;51.174;6.738;2024-03-17T17:02:58;14.30;50.10
48589;DHT22;34369;51.174;6.738;2024-03-17T17:05:32;14.20;49.90
48589;DHT22;34369;51.174;6.738;2024-03-17T17:08:07;14.20;50.10
48589;DHT22;34369;51.174;6.738;2024-03-17T17:10:41;14.10;50.00
48589;DHT22;34369;51.174;6.738;2024-03-17T17:13:15;14.10;50.10
48589;DHT22;34369;51.174;6.738;2024-03-17T17:15:48;14.00;50.50
48589;DHT22;34369;51.174;6.738;2024-03-17T17:18:47;14.00;50.50
48589;DHT22;34369;51.174;6.738;2024-03-17T17:21:32;13.90;50.50
48589;DHT22;34369;51.174;6.738;2024-03-17T17:24:17;13.90;50.50
48589;DHT22;34369;51.174;6.738;2024-03-17T17:26:54;13.90;50.60
48589;DHT22;34369;51.174;6.738;2024-03-17T17:29:27;13.80;50.60
48589;DHT22;34369;51.174;6.738;2024-03-17T17:32:09;13.70;50.60
48589;DHT22;34369;51.174;6.738;2024-03-17T17:34:43;13.70;50.70
48589;DHT22;34369;51.174;6.738;2024-03-17T17:37:18;13.60;50.70
48589;DHT22;34369;51.174;6.738;2024-03-17T17:39:54;13.60;50.90
48589;DHT22;34369;51.174;6.738;2024-03-17T17:42:27;13.50;50.80
48589;DHT22;34369;51.174;6.738;2024-03-17T17:45:00;13.50;51.10
48589;DHT22;34369;51.174;6.738;2024-03-17T17:47:34;13.50;51.10
48589;DHT22;34369;51.174;6.738;2024-03-17T17:50:10;13.50;51.00
48589;DHT22;34369;51.174;6.738;2024-03-17T17:52:44;13.50;51.10
48589;DHT22;34369;51.174;6.738;2024-03-17T17:55:20;13.40;51.20
48589;DHT22;34369;51.174;6.738;2024-03-17T17:57:54;13.30;51.40
48589;DHT22;34369;51.174;6.738;2024-03-17T18:00:29;13.30;51.20
48589;DHT22;34369;51.174;6.738;2024-03-17T18:03:03;13.30;51.40
48589;DHT22;34369;51.174;6.738;2024-03-17T18:05:38;13.30;51.50
48589;DHT22;34369;51.174;6.738;2024-03-17T18:08:12;13.30;51.60
48589;DHT22;34369;51.174;6.738;2024-03-17T18:10:47;13.30;51.60
48589;DHT22;34369;51.174;6.738;2024-03-17T18:13:21;13.20;51.70
48589;DHT22;34369;51.174;6.738;2024-03-17T18:15:59;13.20;51.90
48589;DHT22;34369;51.174;6.738;2024-03-17T18:18:33;13.10;51.90
48589;DHT22;34369;51.174;6.738;2024-03-17T18:21:10;13.10;52.00
48589;DHT22;34369;51.174;6.738;2024-03-17T18:23:43;13.10;52.00
48589;DHT22;34369;51.174;6.738;2024-03-17T18:26:20;13.10;52.00
48589;DHT22;34369;51.174;6.738;2024-03-17T18:28:53;13.10;52.00
48589;DHT22;34369;51.174;6.738;2024-03-17T18:31:26;13.10;52.20
48589;DHT22;34369;51.174;6.738;2024-03-17T18:34:01;13.00;52.20